sensor_id;sensor_type;location;lat;lon;timestamp;temperature;humidity
53926;DHT22;39836;52.754;6.866;2023-05-07T10:44:46;18.30;75.80
53926;DHT22;39836;52.754;6.866;2023-05-07T10:47:16;18.40;75.70
53926;DHT22;39836;52.754;6.866;2023-05-07T10:52:13;18.40;75.60
53926;DHT22;39836;52.754;6.866;2023-05-07T10:54:40;18.60;75.90
53926;DHT22;39836;52.754;6.866;2023-05-07T10:57:32;18.60;75.50
53926;DHT22;39836;52.754;6.866;2023-05-07T10:59:58;18.20;75.10
53926;DHT22;39836;52.754;6.866;2023-05-07T11:05:29;18.40;75.80
53926;DHT22;39836;52.754;6.866;2023-05-07T11:08:02;18.50;75.60
53926;DHT22;39836;52.754;6.866;2023-05-07T11:13:12;18.50;75.70
53926;DHT22;39836;52.754;6.866;2023-05-07T11:15:43;18.60;75.60
53926;DHT22;39836;52.754;6.866;2023-05-07T11:18:11;18.50;75.30
53926;DHT22;39836;52.754;6.866;2023-05-07T11:26:04;18.70;74.80
53926;DHT22;39836;52.754;6.866;2023-05-07T11:28:31;18.70;74.80
53926;DHT22;39836;52.754;6.866;2023-05-07T11:30:57;18.40;74.70
53926;DHT22;39836;52.754;6.866;2023-05-07T11:33:23;18.60;75.30
53926;DHT22;39836;52.754;6.866;2023-05-07T11:35:55;18.90;75.50
53926;DHT22;39836;52.754;6.866;2023-05-07T11:38:21;19.10;75.00
53926;DHT22;39836;52.754;6.866;2023-05-07T11:40:58;19.00;75.10
53926;DHT22;39836;52.754;6.866;2023-05-07T11:43:28;18.90;74.90
53926;DHT22;39836;52.754;6.866;2023-05-07T11:45:53;18.80;74.50
53926;DHT22;39836;52.754;6.866;2023-05-07T11:48:21;18.70;74.60
53926;DHT22;39836;52.754;6.866;2023-05-07T11:51:02;18.70;74.50
53926;DHT22;39836;52.754;6.866;2023-05-07T11:53:35;18.90;75.10
53926;DHT22;39836;52.754;6.866;2023-05-07T11:56:10;19.10;74.50
53926;DHT22;39836;52.754;6.866;2023-05-07T11:58:36;18.90;75.20
53926;DHT22;39836;52.754;6.866;2023-05-07T12:01:02;19.10;74.90
53926;DHT22;39836;52.754;6.866;2023-05-07T12:03:28;19.20;74.70
53926;DHT22;39836;52.754;6.866;2023-05-07T12:05:54;19.00;74.80
53926;DHT22;39836;52.754;6.866;2023-05-07T12:08:21;19.10;74.70
53926;DHT22;39836;52.754;6.866;2023-05-07T12:10:49;19.10;74.50
53926;DHT22;39836;52.754;6.866;2023-05-07T12:13:16;18.70;74.60
53926;DHT22;39836;52.754;6.866;2023-05-07T12:15:42;18.70;74.80
53926;DHT22;39836;52.754;6.866;2023-05-07T12:18:08;18.80;75.20
53926;DHT22;39836;52.754;6.866;2023-05-07T12:20:35;19.20;75.30
53926;DHT22;39836;52.754;6.866;2023-05-07T12:23:02;19.50;74.90
53926;DHT22;39836;52.754;6.866;2023-05-07T12:25:32;19.70;74.90
53926;DHT22;39836;52.754;6.866;2023-05-07T12:28:00;20.10;74.80
53926;DHT22;39836;52.754;6.866;2023-05-07T12:30:26;20.10;74.10
53926;DHT22;39836;52.754;6.866;2023-05-07T12:32:53;20.00;74.10
53926;DHT22;39836;52.754;6.866;2023-05-07T12:35:35;20.20;74.40
53926;DHT22;39836;52.754;6.866;2023-05-07T12:38:01;20.40;73.30
53926;DHT22;39836;52.754;6.866;2023-05-07T12:40:38;20.60;74.20
53926;DHT22;39836;52.754;6.866;2023-05-07T12:43:04;20.70;73.60
53926;DHT22;39836;52.754;6.866;2023-05-07T12:45:30;20.90;73.90
53926;DHT22;39836;52.754;6.866;2023-05-07T12:47:56;20.80;73.60
53926;DHT22;39836;52.754;6.866;2023-05-07T12:50:30;20.80;73.50
53926;DHT22;39836;52.754;6.866;2023-05-07T12:52:56;20.40;73.10
53926;DHT22;39836;52.754;6.866;2023-05-07T12:55:21;20.40;73.70
53926;DHT22;39836;52.754;6.866;2023-05-07T12:57:51;19.90;73.30
53926;DHT22;39836;52.754;6.866;2023-05-07T13:00:32;19.80;73.40
53926;DHT22;39836;52.754;6.866;2023-05-07T13:02:58;19.80;73.60
53926;DHT22;39836;52.754;6.866;2023-05-07T13:05:24;19.50;73.80
53926;DHT22;39836;52.754;6.866;2023-05-07T13:07:56;19.50;73.70
53926;DHT22;39836;52.754;6.866;2023-05-07T13:10:23;19.30;73.30
53926;DHT22;39836;52.754;6.866;2023-05-07T13:12:49;19.30;73.90
53926;DHT22;39836;52.754;6.866;2023-05-07T13:15:15;19.30;73.90
53926;DHT22;39836;52.754;6.866;2023-05-07T13:17:41;19.40;73.80
53926;DHT22;39836;52.754;6.866;2023-05-07T13:20:08;19.40;73.80
53926;DHT22;39836;52.754;6.866;2023-05-07T13:22:34;19.60;73.90
53926;DHT22;39836;52.754;6.866;2023-05-07T13:24:59;19.60;73.80
53926;DHT22;39836;52.754;6.866;2023-05-07T13:27:25;19.80;73.80
53926;DHT22;39836;52.754;6.866;2023-05-07T13:29:51;19.80;73.70
53926;DHT22;39836;52.754;6.866;2023-05-07T13:32:17;19.50;73.60
53926;DHT22;39836;52.754;6.866;2023-05-07T13:34:43;19.50;73.90
53926;DHT22;39836;52.754;6.866;2023-05-07T13:37:08;19.50;73.70
53926;DHT22;39836;52.754;6.866;2023-05-07T13:39:34;19.80;74.40
53926;DHT22;39836;52.754;6.866;2023-05-07T13:42:00;20.20;74.30
53926;DHT22;39836;52.754;6.866;2023-05-07T13:44:26;20.50;74.20
53926;DHT22;39836;52.754;6.866;2023-05-07T13:46:52;20.80;74.00
53926;DHT22;39836;52.754;6.866;2023-05-07T13:49:18;21.10;73.90
53926;DHT22;39836;52.754;6.866;2023-05-07T13:51:43;21.10;73.50
53926;DHT22;39836;52.754;6.866;2023-05-07T13:54:09;21.00;73.50
53926;DHT22;39836;52.754;6.866;2023-05-07T13:56:35;21.50;73.50
53926;DHT22;39836;52.754;6.866;2023-05-07T13:59:00;21.30;73.00
53926;DHT22;39836;52.754;6.866;2023-05-07T14:01:27;20.90;73.10
53926;DHT22;39836;52.754;6.866;2023-05-07T14:03:52;20.70;73.20
53926;DHT22;39836;52.754;6.866;2023-05-07T14:06:18;20.40;73.30
53926;DHT22;39836;52.754;6.866;2023-05-07T14:08:44;20.30;73.40
53926;DHT22;39836;52.754;6.866;2023-05-07T14:11:09;20.20;73.50
53926;DHT22;39836;52.754;6.866;2023-05-07T14:13:35;20.10;73.60
53926;DHT22;39836;52.754;6.866;2023-05-07T14:16:01;20.10;73.60
53926;DHT22;39836;52.754;6.866;2023-05-07T14:18:27;20.10;73.50
53926;DHT22;39836;52.754;6.866;2023-05-07T14:20:54;20.00;73.40
53926;DHT22;39836;52.754;6.866;2023-05-07T14:23:20;19.80;73.60
53926;DHT22;39836;52.754;6.866;2023-05-07T14:25:50;19.60;73.50
53926;DHT22;39836;52.754;6.866;2023-05-07T14:28:16;19.50;73.50
53926;DHT22;39836;52.754;6.866;2023-05-07T14:30:42;19.30;73.60
53926;DHT22;39836;52.754;6.866;2023-05-07T14:33:08;19.30;74.00
53926;DHT22;39836;52.754;6.866;2023-05-07T14:35:33;19.20;73.70
53926;DHT22;39836;52.754;6.866;2023-05-07T14:37:59;19.00;74.20
53926;DHT22;39836;52.754;6.866;2023-05-07T14:40:25;19.00;74.50
53926;DHT22;39836;52.754;6.866;2023-05-07T14:42:51;18.90;75.30
53926;DHT22;39836;52.754;6.866;2023-05-07T14:45:16;18.80;75.80
53926;DHT22;39836;52.754;6.866;2023-05-07T14:47:42;18.80;75.70
53926;DHT22;39836;52.754;6.866;2023-05-07T14:50:08;18.80;76.20
53926;DHT22;39836;52.754;6.866;2023-05-07T14:52:34;18.80;76.50
53926;DHT22;39836;52.754;6.866;2023-05-07T14:54:59;18.80;76.60
53926;DHT22;39836;52.754;6.866;2023-05-07T14:57:25;18.70;76.70
53926;DHT22;39836;52.754;6.866;2023-05-07T14:59:51;18.70;77.00
53926;DHT22;39836;52.754;6.866;2023-05-07T15:02:17;18.70;77.20
53926;DHT22;39836;52.754;6.866;2023-05-07T15:04:43;18.70;77.20
53926;DHT22;39836;52.754;6.866;2023-05-07T15:07:15;18.60;76.70
53926;DHT22;39836;52.754;6.866;2023-05-07T15:09:42;18.70;77.30
53926;DHT22;39836;52.754;6.866;2023-05-07T15:12:07;19.10;77.50
53926;DHT22;39836;52.754;6.866;2023-05-07T15:14:34;19.20;76.60
53926;DHT22;39836;52.754;6.866;2023-05-07T15:17:00;19.20;76.50
53926;DHT22;39836;52.754;6.866;2023-05-07T15:19:26;19.30;76.50
53926;DHT22;39836;52.754;6.866;2023-05-07T15:21:58;19.20;76.40
53926;DHT22;39836;52.754;6.866;2023-05-07T15:24:25;19.40;76.60
53926;DHT22;39836;52.754;6.866;2023-05-07T15:26:53;19.50;76.70
53926;DHT22;39836;52.754;6.866;2023-05-07T15:29:19;19.50;76.20
53926;DHT22;39836;52.754;6.866;2023-05-07T15:31:46;19.50;76.10
53926;DHT22;39836;52.754;6.866;2023-05-07T15:34:12;19.60;76.40
53926;DHT22;39836;52.754;6.866;2023-05-07T15:36:37;19.60;76.10
53926;DHT22;39836;52.754;6.866;2023-05-07T15:39:03;19.50;75.90
53926;DHT22;39836;52.754;6.866;2023-05-07T15:41:29;19.60;75.90
53926;DHT22;39836;52.754;6.866;2023-05-07T15:43:55;19.50;75.90
53926;DHT22;39836;52.754;6.866;2023-05-07T15:46:22;19.60;75.70
53926;DHT22;39836;52.754;6.866;2023-05-07T15:48:52;19.50;75.60
53926;DHT22;39836;52.754;6.866;2023-05-07T15:51:18;19.50;75.60
53926;DHT22;39836;52.754;6.866;2023-05-07T15:53:44;19.50;75.30
53926;DHT22;39836;52.754;6.866;2023-05-07T15:56:10;19.30;75.30
53926;DHT22;39836;52.754;6.866;2023-05-07T15:58:36;19.30;75.40
53926;DHT22;39836;52.754;6.866;2023-05-07T16:01:02;19.20;75.40
53926;DHT22;39836;52.754;6.866;2023-05-07T16:03:29;19.10;75.30
53926;DHT22;39836;52.754;6.866;2023-05-07T16:05:56;19.10;75.40
53926;DHT22;39836;52.754;6.866;2023-05-07T16:08:28;19.20;75.70
53926;DHT22;39836;52.754;6.866;2023-05-07T16:10:54;19.30;75.60
53926;DHT22;39836;52.754;6.866;2023-05-07T16:13:20;19.30;75.60
53926;DHT22;39836;52.754;6.866;2023-05-07T16:15:46;19.30;75.50
53926;DHT22;39836;52.754;6.866;2023-05-07T16:18:12;19.20;75.40
53926;DHT22;39836;52.754;6.866;2023-05-07T16:20:41;19.10;75.30
53926;DHT22;39836;52.754;6.866;2023-05-07T16:23:10;18.80;74.90
53926;DHT22;39836;52.754;6.866;2023-05-07T16:25:37;18.40;75.50
